createdAt,value
2022-09-13T00:00:53.971Z,6.17
2022-09-13T00:03:22.581Z,6.60
2022-09-13T00:05:51.116Z,7.00
2022-09-13T00:08:20.765Z,6.27
2022-09-13T00:10:49.084Z,8.70
2022-09-13T00:13:18.221Z,6.23
2022-09-13T00:15:46.956Z,6.83
2022-09-13T00:18:15.406Z,6.80
2022-09-13T00:20:43.616Z,7.00
2022-09-13T00:23:12.481Z,6.80
2022-09-13T00:25:42.343Z,6.57
2022-09-13T00:28:11.053Z,6.80
2022-09-13T00:30:39.145Z,7.03
2022-09-13T00:33:07.295Z,6.50
2022-09-13T00:35:35.698Z,6.70
2022-09-13T00:38:03.831Z,6.60
2022-09-13T00:40:31.986Z,6.27
2022-09-13T00:43:02.311Z,6.73
2022-09-13T00:45:30.606Z,6.70
2022-09-13T00:48:02.063Z,6.20
2022-09-13T00:50:35.448Z,7.63
2022-09-13T00:53:09.123Z,7.60
2022-09-13T00:55:42.466Z,8.33
2022-09-13T00:58:16.705Z,8.90
2022-09-13T01:00:46.955Z,7.67
2022-09-13T01:03:17.628Z,7.20
2022-09-13T01:05:49.991Z,8.03
2022-09-13T01:08:22.367Z,7.70
2022-09-13T01:10:52.484Z,7.17
2022-09-13T01:13:24.379Z,7.13
2022-09-13T01:15:53.337Z,6.60
2022-09-13T01:18:21.849Z,7.17
2022-09-13T01:21:19.130Z,6.23
2022-09-13T01:24:20.251Z,7.90
2022-09-13T01:27:16.732Z,7.30
2022-09-13T01:30:14.125Z,6.57
2022-09-13T01:33:00.551Z,7.10
2022-09-13T01:35:37.357Z,5.97
2022-09-13T01:38:14.729Z,7.77
2022-09-13T01:40:57.499Z,6.37
2022-09-13T01:43:33.282Z,6.20
2022-09-13T01:46:06.656Z,5.70
2022-09-13T01:48:44.530Z,5.20
2022-09-13T01:51:18.011Z,6.00
2022-09-13T01:53:57.821Z,7.33
2022-09-13T01:56:30.556Z,6.23
2022-09-13T01:59:02.308Z,6.27
2022-09-13T02:01:36.695Z,7.67
2022-09-13T02:04:12.562Z,7.47
2022-09-13T02:06:46.864Z,5.50
2022-09-13T02:09:21.617Z,6.60
2022-09-13T02:11:54.889Z,6.23
2022-09-13T02:14:28.441Z,5.37
2022-09-13T02:17:04.033Z,5.63
2022-09-13T02:19:38.584Z,5.93
2022-09-13T02:22:09.617Z,6.87
2022-09-13T02:24:42.328Z,6.13
2022-09-13T02:27:13.367Z,6.37
2022-09-13T02:29:47.041Z,6.23
2022-09-13T02:32:22.763Z,6.20
2022-09-13T02:34:56.024Z,9.10
2022-09-13T02:37:25.709Z,6.77
2022-09-13T02:39:58.839Z,6.37
2022-09-13T02:42:32.507Z,7.00
2022-09-13T02:45:01.281Z,9.90
2022-09-13T02:47:40.274Z,6.73
2022-09-13T02:50:22.554Z,7.00
2022-09-13T02:52:58.259Z,7.03
2022-09-13T02:55:31.739Z,7.07
2022-09-13T02:58:08.391Z,8.93
2022-09-13T03:00:37.095Z,6.57
2022-09-13T03:03:09.915Z,7.30
2022-09-13T03:05:38.286Z,6.93
2022-09-13T03:08:10.774Z,8.23
2022-09-13T03:10:49.491Z,9.47
2022-09-13T03:13:48.837Z,7.43
2022-09-13T03:16:38.763Z,7.17
2022-09-13T03:19:33.737Z,7.80
2022-09-13T03:22:19.432Z,9.60
2022-09-13T03:24:53.834Z,7.37
2022-09-13T03:27:34.222Z,8.80
2022-09-13T03:30:07.154Z,9.10
2022-09-13T03:32:43.183Z,7.20
2022-09-13T03:35:21.904Z,9.13
2022-09-13T03:37:58.447Z,11.63
2022-09-13T03:40:36.848Z,11.10
2022-09-13T03:43:09.802Z,9.07
2022-09-13T03:45:43.700Z,7.70
2022-09-13T03:48:13.454Z,8.07
2022-09-13T03:50:43.792Z,9.10
2022-09-13T03:53:14.971Z,7.17
2022-09-13T03:55:44.782Z,6.47
2022-09-13T03:58:14.969Z,7.83
2022-09-13T04:00:44.748Z,6.90
2022-09-13T04:03:14.018Z,6.50
2022-09-13T04:05:43.936Z,4.93
2022-09-13T04:08:12.207Z,8.33
2022-09-13T04:10:40.761Z,5.47
2022-09-13T04:13:08.959Z,5.63
2022-09-13T04:15:37.111Z,6.40
2022-09-13T04:18:05.629Z,5.00
2022-09-13T04:20:33.794Z,5.57
2022-09-13T04:23:03.277Z,6.57
2022-09-13T04:25:31.545Z,7.63
2022-09-13T04:28:00.915Z,7.67
2022-09-13T04:30:29.492Z,7.03
2022-09-13T04:32:59.632Z,5.80
2022-09-13T04:35:28.930Z,6.47
2022-09-13T04:37:58.228Z,4.83
2022-09-13T04:40:27.654Z,5.87
2022-09-13T04:42:55.789Z,5.27
2022-09-13T04:45:24.070Z,5.97
2022-09-13T04:47:53.853Z,5.53
2022-09-13T04:50:22.348Z,6.97
2022-09-13T04:52:51.282Z,5.17
2022-09-13T04:55:19.448Z,6.17
2022-09-13T04:57:49.073Z,5.57
2022-09-13T05:00:17.403Z,6.70
2022-09-13T05:02:45.518Z,6.67
2022-09-13T05:05:13.700Z,6.13
2022-09-13T05:07:42.067Z,6.13
2022-09-13T05:10:10.944Z,7.70
2022-09-13T05:12:39.011Z,6.00
2022-09-13T05:15:10.635Z,6.07
2022-09-13T05:17:38.756Z,6.27
2022-09-13T05:20:07.717Z,6.47
2022-09-13T05:22:35.885Z,6.13
2022-09-13T05:25:04.285Z,6.77
2022-09-13T05:27:32.525Z,6.93
2022-09-13T05:30:00.622Z,6.70
2022-09-13T05:32:31.693Z,7.83
2022-09-13T05:35:00.288Z,6.10
2022-09-13T05:37:28.801Z,7.43
2022-09-13T05:40:12.819Z,8.27
2022-09-13T05:42:41.163Z,7.03
2022-09-13T05:45:10.531Z,8.93
2022-09-13T05:47:40.407Z,8.37
2022-09-13T05:50:15.440Z,6.80
2022-09-13T05:52:54.130Z,8.30
2022-09-13T05:55:23.235Z,5.77
2022-09-13T05:57:51.770Z,6.27
2022-09-13T06:00:19.890Z,8.70
2022-09-13T06:02:49.403Z,5.40
2022-09-13T06:05:18.315Z,5.07
2022-09-13T06:07:46.898Z,9.50
2022-09-13T06:10:14.975Z,6.17
2022-09-13T06:12:43.079Z,6.50
2022-09-13T06:15:12.166Z,7.57
2022-09-13T06:17:40.883Z,5.33
2022-09-13T06:20:11.538Z,5.30
2022-09-13T06:22:39.572Z,5.30
2022-09-13T06:25:09.393Z,5.10
2022-09-13T06:27:38.066Z,5.93
2022-09-13T06:30:08.863Z,5.33
2022-09-13T06:32:37.201Z,4.93
2022-09-13T06:35:05.844Z,4.60
2022-09-13T06:37:35.402Z,4.87
2022-09-13T06:40:05.007Z,4.83
2022-09-13T06:42:35.356Z,5.60
2022-09-13T06:45:03.615Z,4.50
2022-09-13T06:47:31.994Z,5.97
2022-09-13T06:50:00.895Z,6.17
2022-09-13T06:52:29.250Z,5.60
2022-09-13T06:54:58.894Z,4.80
2022-09-13T06:57:27.629Z,7.37
2022-09-13T06:59:55.719Z,4.20
2022-09-13T07:02:25.043Z,3.83
2022-09-13T07:04:53.188Z,4.57
2022-09-13T07:07:21.276Z,5.23
2022-09-13T07:09:49.471Z,4.90
2022-09-13T07:12:20.654Z,4.73
2022-09-13T07:14:49.207Z,5.03
2022-09-13T07:17:17.326Z,4.67
2022-09-13T07:19:45.421Z,4.13
2022-09-13T07:22:13.524Z,4.47
2022-09-13T07:24:41.876Z,8.90
2022-09-13T07:27:10.144Z,4.70
2022-09-13T07:29:39.598Z,4.43
2022-09-13T07:32:07.717Z,4.17
2022-09-13T07:34:35.852Z,5.03
2022-09-13T07:37:03.953Z,3.90
2022-09-13T07:39:32.074Z,3.83
2022-09-13T07:42:00.157Z,6.27
2022-09-13T07:44:28.324Z,4.20
2022-09-13T07:46:57.822Z,6.23
2022-09-13T07:49:26.218Z,4.50
2022-09-13T07:51:54.291Z,3.93
2022-09-13T07:54:22.417Z,4.93
2022-09-13T07:56:51.885Z,4.20
2022-09-13T07:59:20.757Z,4.60
2022-09-13T08:01:50.999Z,3.07
2022-09-13T08:04:24.887Z,2.90
2022-09-13T08:06:53.182Z,5.37
2022-09-13T08:09:21.339Z,7.20
2022-09-13T08:11:52.797Z,2.93
2022-09-13T08:14:23.599Z,4.93
2022-09-13T08:16:52.128Z,5.22
2022-09-13T08:19:21.603Z,4.75
2022-09-13T08:21:49.811Z,3.38
2022-09-13T08:24:19.982Z,3.55
2022-09-13T08:26:48.625Z,5.75
2022-09-13T08:29:17.440Z,3.08
2022-09-13T08:31:46.068Z,6.57
2022-09-13T08:34:16.215Z,4.78
2022-09-13T08:36:45.979Z,8.75
2022-09-13T08:39:14.653Z,3.60
2022-09-13T08:41:59.701Z,5.45
2022-09-13T08:44:31.165Z,5.78
2022-09-13T08:47:12.766Z,3.15
2022-09-13T08:49:45.023Z,5.10
2022-09-13T08:52:24.995Z,3.97
2022-09-13T08:54:58.146Z,3.40
2022-09-13T08:57:32.939Z,4.57
2022-09-13T09:00:07.938Z,3.67
2022-09-13T09:02:58.106Z,3.83
2022-09-13T09:05:30.177Z,3.47
2022-09-13T09:08:03.485Z,4.03
2022-09-13T09:10:34.280Z,3.60
2022-09-13T09:13:07.540Z,4.03
2022-09-13T09:15:40.414Z,5.03
2022-09-13T09:18:19.821Z,3.90
2022-09-13T09:20:49.851Z,5.40
2022-09-13T09:23:22.010Z,4.72
2022-09-13T09:25:53.277Z,7.10
2022-09-13T09:28:21.573Z,3.80
2022-09-13T09:31:00.042Z,7.38
2022-09-13T09:33:45.846Z,6.82
2022-09-13T09:36:22.786Z,5.70
2022-09-13T09:38:52.509Z,4.90
2022-09-13T09:41:29.783Z,7.70
2022-09-13T09:44:04.698Z,5.30
2022-09-13T09:46:36.956Z,3.33
2022-09-13T09:49:33.885Z,8.35
2022-09-13T09:52:06.649Z,5.97
2022-09-13T09:54:39.056Z,7.03
2022-09-13T09:57:08.968Z,6.60
2022-09-13T09:59:37.367Z,3.40
2022-09-13T10:02:17.411Z,4.40
2022-09-13T10:04:56.178Z,5.72
2022-09-13T10:07:33.337Z,4.13
2022-09-13T10:10:08.684Z,8.15
2022-09-13T10:12:39.165Z,3.45
2022-09-13T10:15:17.998Z,3.97
2022-09-13T10:18:03.366Z,2.85
2022-09-13T10:20:32.066Z,3.55
2022-09-13T10:23:13.411Z,4.63
2022-09-13T10:25:48.120Z,5.82
2022-09-13T10:28:20.859Z,2.10
2022-09-13T10:30:53.609Z,2.85
2022-09-13T10:33:28.691Z,2.78
2022-09-13T10:35:59.361Z,1.80
2022-09-13T10:38:31.846Z,1.60
2022-09-13T10:41:04.613Z,3.85
2022-09-13T10:43:34.107Z,1.85
2022-09-13T10:46:05.803Z,3.38
2022-09-13T10:48:47.316Z,2.75
2022-09-13T10:51:38.401Z,4.15
2022-09-13T10:54:17.802Z,2.97
2022-09-13T10:56:48.127Z,1.60
2022-09-13T10:59:21.486Z,2.33
2022-09-13T11:02:22.676Z,1.77
2022-09-13T11:05:15.055Z,3.53
2022-09-13T11:08:15.997Z,3.63
2022-09-13T11:10:54.256Z,2.90
2022-09-13T11:13:32.717Z,4.13
2022-09-13T11:16:12.607Z,4.07
2022-09-13T11:18:54.625Z,1.88
2022-09-13T11:21:39.373Z,3.13
2022-09-13T11:24:33.242Z,3.30
2022-09-13T11:27:04.653Z,4.63
2022-09-13T11:29:58.017Z,4.65
2022-09-13T11:32:40.164Z,2.10
2022-09-13T11:35:30.242Z,2.28
2022-09-13T11:38:07.675Z,2.20
2022-09-13T11:40:51.176Z,1.60
2022-09-13T11:43:37.558Z,3.00
2022-09-13T11:46:15.541Z,4.95
2022-09-13T11:49:03.323Z,4.25
2022-09-13T11:51:45.021Z,4.47
2022-09-13T11:54:27.442Z,3.25
2022-09-13T11:56:58.443Z,2.63
2022-09-13T11:59:36.475Z,1.85
2022-09-13T12:02:16.095Z,4.50
2022-09-13T12:05:17.985Z,3.88
2022-09-13T12:07:45.885Z,6.45
2022-09-13T12:10:19.174Z,2.03
2022-09-13T12:12:51.921Z,1.77
2022-09-13T12:15:27.096Z,3.10
2022-09-13T12:18:01.787Z,5.28
2022-09-13T12:20:35.088Z,4.00
2022-09-13T12:23:09.499Z,3.15
2022-09-13T12:25:44.879Z,1.80
2022-09-13T12:28:19.278Z,6.93
2022-09-13T12:30:53.618Z,3.47
2022-09-13T12:33:23.754Z,2.00
2022-09-13T12:36:06.492Z,2.85
2022-09-13T12:39:05.612Z,2.13
2022-09-13T12:41:48.211Z,2.75
2022-09-13T12:44:33.390Z,2.03
2022-09-13T12:47:29.395Z,2.95
2022-09-13T12:53:16.955Z,2.85
2022-09-13T12:56:03.052Z,1.45
2022-09-13T12:58:55.789Z,4.32
2022-09-13T13:01:26.217Z,2.97
2022-09-13T13:03:58.445Z,2.88
2022-09-13T13:06:37.038Z,1.42
2022-09-13T13:09:27.905Z,1.88
2022-09-13T13:11:58.466Z,1.10
2022-09-13T13:14:46.362Z,5.30
2022-09-13T13:17:51.255Z,3.80
2022-09-13T13:21:08.433Z,2.70
2022-09-13T13:23:40.171Z,1.90
2022-09-13T13:26:12.027Z,1.50
2022-09-13T13:29:06.579Z,4.40
2022-09-13T13:31:44.007Z,1.70
2022-09-13T13:34:28.857Z,1.50
2022-09-13T13:37:02.535Z,3.72
2022-09-13T13:39:43.448Z,3.55
2022-09-13T13:42:30.283Z,2.63
2022-09-13T13:45:21.697Z,3.33
2022-09-13T13:48:19.786Z,2.25
2022-09-13T13:51:26.462Z,1.92
2022-09-13T13:54:01.736Z,1.30
2022-09-13T13:56:46.977Z,1.67
2022-09-13T13:59:20.721Z,1.70
2022-09-13T14:01:54.294Z,1.95
2022-09-13T14:04:48.759Z,2.13
2022-09-13T14:07:48.070Z,1.10
2022-09-13T14:10:22.554Z,1.30
2022-09-13T14:13:06.465Z,1.67
2022-09-13T14:15:47.529Z,2.38
2022-09-13T14:18:49.591Z,3.15
2022-09-13T14:21:26.679Z,2.05
2022-09-13T14:24:10.730Z,1.08
2022-09-13T14:26:39.044Z,2.90
2022-09-13T14:29:10.105Z,2.20
2022-09-13T14:31:39.117Z,2.58
2022-09-13T14:34:07.513Z,3.08
2022-09-13T14:36:36.309Z,2.33
2022-09-13T14:39:04.575Z,2.67
2022-09-13T14:41:35.572Z,3.47
2022-09-13T14:44:26.352Z,3.78
2022-09-13T14:47:03.650Z,1.55
2022-09-13T14:49:36.443Z,1.98
2022-09-13T14:52:09.697Z,1.75
2022-09-13T14:54:40.412Z,2.42
2022-09-13T14:57:10.876Z,5.28
2022-09-13T14:59:45.942Z,2.88
2022-09-13T15:02:20.830Z,1.30
2022-09-13T15:04:52.942Z,2.72
2022-09-13T15:07:25.423Z,1.30
2022-09-13T15:09:59.634Z,1.42
2022-09-13T15:12:29.914Z,2.35
2022-09-13T15:15:33.020Z,2.38
2022-09-13T15:18:03.124Z,4.63
2022-09-13T15:20:47.196Z,3.28
2022-09-13T15:23:17.694Z,1.67
2022-09-13T15:25:51.872Z,1.63
2022-09-13T15:28:26.638Z,6.20
2022-09-13T15:30:58.870Z,8.00
2022-09-13T15:33:30.920Z,5.85
2022-09-13T15:36:17.439Z,5.18
2022-09-13T15:39:01.756Z,3.60
2022-09-13T15:41:32.657Z,2.20
2022-09-13T15:44:02.093Z,6.13
2022-09-13T15:46:32.275Z,3.35
2022-09-13T15:49:04.190Z,2.95
2022-09-13T15:51:38.184Z,3.00
2022-09-13T15:54:12.806Z,5.47
2022-09-13T15:56:43.988Z,1.60
2022-09-13T15:59:14.617Z,2.03
2022-09-13T16:01:45.562Z,4.22
2022-09-13T16:04:14.096Z,3.88
2022-09-13T16:06:43.101Z,3.60
2022-09-13T16:09:19.083Z,4.43
2022-09-13T16:11:48.254Z,2.35
2022-09-13T16:14:17.369Z,3.03
2022-09-13T16:16:49.069Z,1.90
2022-09-13T16:19:18.727Z,3.38
2022-09-13T16:21:47.418Z,2.42
2022-09-13T16:24:16.211Z,2.42
2022-09-13T16:26:45.261Z,2.30
2022-09-13T16:29:14.563Z,3.53
2022-09-13T16:31:46.119Z,4.72
2022-09-13T16:34:18.693Z,5.60
2022-09-13T16:36:47.018Z,2.85
2022-09-13T16:39:15.239Z,3.80
2022-09-13T16:41:43.389Z,5.57
2022-09-13T16:44:11.743Z,4.50
2022-09-13T16:46:39.992Z,4.47
2022-09-13T16:49:08.335Z,2.33
2022-09-13T16:51:38.308Z,6.53
2022-09-13T16:54:07.122Z,3.88
2022-09-13T16:56:35.516Z,3.83
2022-09-13T16:59:03.843Z,5.43
2022-09-13T17:01:32.389Z,3.50
2022-09-13T17:04:00.851Z,3.65
2022-09-13T17:06:31.020Z,3.45
2022-09-13T17:09:03.363Z,4.40
2022-09-13T17:11:33.829Z,2.92
2022-09-13T17:14:04.680Z,4.53
2022-09-13T17:16:37.313Z,4.47
2022-09-13T17:19:10.424Z,3.30
2022-09-13T17:21:38.910Z,5.30
2022-09-13T17:24:13.252Z,6.13
2022-09-13T17:26:41.927Z,8.38
2022-09-13T17:29:10.307Z,7.07
2022-09-13T17:31:38.773Z,8.60
2022-09-13T17:34:06.992Z,9.38
2022-09-13T17:36:35.289Z,9.15
2022-09-13T17:39:04.172Z,10.40
2022-09-13T17:41:33.769Z,4.60
2022-09-13T17:44:04.288Z,6.07
2022-09-13T17:46:33.015Z,4.55
2022-09-13T17:49:01.848Z,9.25
2022-09-13T17:51:31.609Z,7.47
2022-09-13T17:54:01.957Z,7.82
2022-09-13T17:56:34.156Z,4.55
2022-09-13T17:59:10.002Z,6.10
2022-09-13T18:01:40.294Z,5.88
2022-09-13T18:04:09.101Z,6.20
2022-09-13T18:06:38.288Z,12.20
2022-09-13T18:09:06.598Z,11.05
2022-09-13T18:11:36.376Z,10.02
2022-09-13T18:14:06.081Z,5.90
2022-09-13T18:16:34.699Z,9.52
2022-09-13T18:19:05.122Z,8.65
2022-09-13T18:21:33.383Z,7.03
2022-09-13T18:24:02.126Z,3.80
2022-09-13T18:26:32.482Z,7.05
2022-09-13T18:29:03.768Z,6.40
2022-09-13T18:31:35.228Z,4.93
2022-09-13T18:34:05.393Z,8.43
2022-09-13T18:36:34.870Z,3.47
2022-09-13T18:39:04.295Z,4.93
2022-09-13T18:41:34.465Z,5.05
2022-09-13T18:44:05.370Z,4.13
2022-09-13T18:46:35.491Z,3.88
2022-09-13T18:49:04.485Z,6.78
2022-09-13T18:51:35.742Z,3.13
2022-09-13T18:54:05.868Z,3.97
2022-09-13T18:56:34.792Z,8.80
2022-09-13T18:59:06.772Z,3.75
2022-09-13T19:01:36.444Z,7.65
2022-09-13T19:04:08.643Z,3.42
2022-09-13T19:06:38.871Z,6.78
2022-09-13T19:09:09.217Z,3.50
2022-09-13T19:11:48.211Z,6.47
2022-09-13T19:14:21.763Z,6.53
2022-09-13T19:16:51.076Z,5.50
2022-09-13T19:19:20.242Z,6.30
2022-09-13T19:21:48.835Z,5.53
2022-09-13T19:24:19.582Z,2.90
2022-09-13T19:26:51.548Z,6.35
2022-09-13T19:29:23.590Z,4.93
2022-09-13T19:31:56.096Z,5.07
2022-09-13T19:34:24.699Z,6.30
2022-09-13T19:36:58.346Z,8.80
2022-09-13T19:39:30.086Z,5.75
2022-09-13T19:41:59.788Z,5.68
2022-09-13T19:44:29.668Z,6.30
2022-09-13T19:47:36.254Z,11.20
2022-09-13T19:49:46.264Z,6.57
2022-09-13T19:52:14.437Z,4.47
2022-09-13T19:54:42.866Z,3.83
2022-09-13T19:57:11.154Z,7.63
2022-09-13T19:59:40.664Z,6.30
2022-09-13T20:02:10.965Z,3.38
2022-09-13T20:04:39.088Z,5.97
2022-09-13T20:07:11.989Z,5.80
2022-09-13T20:09:46.787Z,2.80
2022-09-13T20:12:15.449Z,6.18
2022-09-13T20:14:45.178Z,5.90
2022-09-13T20:17:13.274Z,4.43
2022-09-13T20:19:45.096Z,5.00
2022-09-13T20:22:17.292Z,6.35
2022-09-13T20:24:45.358Z,3.25
2022-09-13T20:27:13.725Z,4.53
2022-09-13T20:29:42.106Z,4.30
2022-09-13T20:32:12.046Z,4.03
2022-09-13T20:34:40.572Z,3.83
2022-09-13T20:37:09.005Z,4.78
2022-09-13T20:39:37.446Z,7.45
2022-09-13T20:42:06.054Z,5.50
2022-09-13T20:44:34.202Z,4.88
2022-09-13T20:47:02.523Z,5.40
2022-09-13T20:49:32.141Z,9.77
2022-09-13T20:52:00.308Z,4.50
2022-09-13T20:54:28.434Z,6.20
2022-09-13T20:56:56.583Z,3.30
2022-09-13T20:59:24.903Z,4.55
2022-09-13T21:01:53.082Z,6.88
2022-09-13T21:04:22.600Z,3.97
2022-09-13T21:07:14.285Z,2.95
2022-09-13T21:09:43.323Z,5.65
2022-09-13T21:12:11.644Z,3.78
2022-09-13T21:14:39.737Z,3.92
2022-09-13T21:17:08.514Z,9.18
2022-09-13T21:19:36.828Z,5.25
2022-09-13T21:22:06.474Z,5.20
2022-09-13T21:24:34.562Z,4.72
2022-09-13T21:27:02.790Z,5.80
2022-09-13T21:29:31.165Z,3.85
2022-09-13T21:31:59.337Z,4.18
2022-09-13T21:34:29.742Z,4.38
2022-09-13T21:36:58.005Z,4.47
2022-09-13T21:39:27.463Z,3.80
2022-09-13T21:41:55.652Z,3.42
2022-09-13T21:44:24.035Z,3.53
2022-09-13T21:46:52.544Z,5.25
2022-09-13T21:49:21.983Z,6.70
2022-09-13T21:51:53.125Z,7.57
2022-09-13T21:54:21.800Z,5.18
2022-09-13T21:56:53.832Z,4.78
2022-09-13T21:59:23.396Z,7.78
2022-09-13T22:01:54.123Z,4.63
2022-09-13T22:04:25.259Z,5.18
2022-09-13T22:06:54.104Z,6.57
2022-09-13T22:09:23.987Z,7.28
2022-09-13T22:11:53.647Z,4.70
2022-09-13T22:14:22.497Z,5.70
2022-09-13T22:16:52.534Z,5.28
2022-09-13T22:19:23.474Z,4.80
2022-09-13T22:21:55.389Z,4.15
2022-09-13T22:24:24.938Z,4.13
2022-09-13T22:26:56.572Z,6.90
2022-09-13T22:29:25.623Z,5.75
2022-09-13T22:31:54.522Z,5.57
2022-09-13T22:34:24.768Z,4.07
2022-09-13T22:36:54.731Z,7.70
2022-09-13T22:39:23.061Z,3.88
2022-09-13T22:41:51.444Z,5.20
2022-09-13T22:44:21.178Z,4.65
2022-09-13T22:46:49.630Z,6.60
2022-09-13T22:49:19.338Z,5.80
2022-09-13T22:51:48.929Z,6.97
2022-09-13T22:54:20.024Z,4.43
2022-09-13T22:56:50.370Z,4.93
2022-09-13T22:59:24.130Z,6.53
2022-09-13T23:01:55.439Z,7.10
2022-09-13T23:04:24.083Z,9.88
2022-09-13T23:06:52.213Z,6.80
2022-09-13T23:09:21.836Z,8.07
2022-09-13T23:11:50.176Z,6.27
2022-09-13T23:14:20.777Z,7.35
2022-09-13T23:16:51.268Z,5.05
2022-09-13T23:19:21.207Z,5.78
2022-09-13T23:21:49.517Z,7.30
2022-09-13T23:24:19.776Z,7.05
2022-09-13T23:26:48.294Z,9.77
2022-09-13T23:29:18.954Z,6.07
2022-09-13T23:31:49.679Z,4.78
2022-09-13T23:34:17.956Z,8.35
2022-09-13T23:36:47.103Z,6.07
2022-09-13T23:39:17.511Z,5.43
2022-09-13T23:41:47.321Z,7.20
2022-09-13T23:44:15.831Z,6.28
2022-09-13T23:46:44.675Z,11.88
2022-09-13T23:49:14.370Z,8.40
2022-09-13T23:51:42.632Z,7.47
2022-09-13T23:54:11.065Z,9.53
2022-09-13T23:56:39.369Z,5.13
2022-09-13T23:59:08.030Z,7.40
